Fairview, WY (83119)

12:44 PM MDT on April 27, 2017 (GMT -0600)
KWYAFTON2 | | Change Station

Elev 6312 ft 42.67 °N, 110.94 °W | Updated 1 minute ago

Overcast
Overcast
36.9 °F
Feels Like 29 °F
N
13.0
Wind Variable Wind from WNW

Today
High -- | Low -- °F
--% Chance of Precip.
Yesterday
High -- | Low -- °F
Precip. -- in
Pressure 29.73 in
Visibility 10.0 miles
Clouds Mostly Cloudy 3200 ft
Mostly Cloudy 4000 ft
Mostly Cloudy 5000 ft
Windchill 29 °F
Dew Point 20 °F
Humidity 51%
Rainfall 0.16 in
Snow Depth Not available.
6:23 AM 8:20 PM
New Moon, 2% visible
METAR KAFO 271835Z AUTO 30018G22KT 10SM BKN032 BKN040 BKN050 02/M03 A2973 RMK AO2
Pressure 29.73 in
Visibility 10.0 miles
Clouds Mostly Cloudy 3200 ft
Mostly Cloudy 4000 ft
Mostly Cloudy 5000 ft
Windchill 29 °F
Dew Point 20 °F
Humidity 51%
Rainfall 0.16 in
Snow Depth Not available.
6:23 AM 8:20 PM
New Moon, 2% visible
METAR KAFO 271835Z AUTO 30018G22KT 10SM BKN032 BKN040 BKN050 02/M03 A2973 RMK AO2

Get Severe Weather Alerts

Thanks for signing up!

Be on the lookout for a verification email in your inbox.

You'll start receiving the daily forecast at 8 AM.

×

10-Day Weather Forecast

Almanac

Astronomy

Apr. 27, 2017 Rise Set
Actual Time
Civil Twilight
Nautical Twilight
Astronomical Twilight
Moon
Length of Visible Light
Length of Day
Tomorrow will be .
, % of the Moon is Illuminated

Today's Extremes

State Highs State Lows

Community

WunderPhotos

WunderBlog® & News

Nearby

Air Quality

  Air Quality AQ Index Pollutant
Not available.

Snow Depth

Station Depth Elevation

Earthquake Activity

City Distance Mag. Time & Date
Minimum magnitude displayed is 2.5.

Coastal Water Temperatures

Place Temperature

Stations

Nearby Weather Stations

Station Location Temp. Windchill Dew Point Humidity Wind Precip. Elev Updated Type
                   

Watches & Warnings

There are currently no watches in effect.